Time;durP1;ratioP1;P1;durP2;ratioP2;P2;SDS_P1;SDS_P2;PMS_P1;PMS_P2;Temp;Humidity;BMP_temperature;BMP_pressure;BME280_temperature;BME280_humidity;BME280_pressure;Samples;Min_cycle;Max_cycle;Signal;HPM_P1;HPM_P2
2022/05/04 00:01:47;;;;;;;7.95;5.97;;;16.80;69.80;;;;;;5091256;28;20024;-75
2022/05/04 00:04:12;;;;;;;8.85;6.05;;;16.80;69.90;;;;;;5091942;28;20028;-75
2022/05/04 00:06:38;;;;;;;7.90;6.38;;;16.80;70.30;;;;;;5092004;28;20031;-74
2022/05/04 00:09:04;;;;;;;8.20;5.40;;;16.80;70.00;;;;;;5091522;28;20452;-74
2022/05/04 00:11:30;;;;;;;6.60;4.90;;;16.80;70.20;;;;;;5092072;28;20024;-74
2022/05/04 00:13:55;;;;;;;7.78;5.18;;;16.90;70.10;;;;;;5090838;28;20044;-74
2022/05/04 00:16:21;;;;;;;6.35;4.95;;;16.90;70.30;;;;;;5091676;28;20306;-74
2022/05/04 00:18:47;;;;;;;7.80;4.85;;;16.90;70.20;;;;;;5091377;28;20613;-75
2022/05/04 00:21:13;;;;;;;7.22;4.63;;;16.90;70.40;;;;;;5091974;28;20411;-75
2022/05/04 00:23:39;;;;;;;6.47;5.22;;;16.90;70.30;;;;;;5091858;28;20115;-74
2022/05/04 00:26:05;;;;;;;5.18;4.72;;;16.90;70.30;;;;;;5091164;28;20043;-74
2022/05/04 00:28:31;;;;;;;7.60;5.10;;;17.00;70.20;;;;;;5091739;28;20024;-74
2022/05/04 00:30:56;;;;;;;7.30;5.18;;;16.90;70.00;;;;;;5091218;28;20031;-75
2022/05/04 00:33:22;;;;;;;7.28;5.25;;;16.90;70.30;;;;;;5091715;28;20067;-75
2022/05/04 00:35:48;;;;;;;8.10;5.13;;;16.90;70.10;;;;;;5091206;28;20358;-75
2022/05/04 00:38:13;;;;;;;5.78;5.18;;;16.90;70.20;;;;;;5091639;28;20054;-75
2022/05/04 00:40:39;;;;;;;5.13;4.63;;;16.90;70.20;;;;;;5091554;28;20024;-75
2022/05/04 00:43:18;;;;;;;5.72;4.97;;;16.90;70.10;;;;;;5091188;28;20441;-75
2022/05/04 00:45:43;;;;;;;8.75;4.97;;;16.90;70.10;;;;;;5091621;28;20058;-75
2022/05/04 00:48:09;;;;;;;9.52;5.40;;;16.90;69.50;;;;;;5089617;28;20036;-75
2022/05/04 00:50:35;;;;;;;6.45;5.45;;;16.90;70.10;;;;;;5091704;28;20038;-76
2022/05/04 00:53:00;;;;;;;5.82;5.00;;;16.90;69.90;;;;;;5090852;28;20021;-75
2022/05/04 00:55:26;;;;;;;6.93;6.07;;;17.00;69.60;;;;;;5091570;28;20032;-75
2022/05/04 01:00:36;;;;;;;12.10;6.15;;;17.00;70.10;;;;;;5094380;28;20392;-75
2022/05/04 01:03:01;;;;;;;9.45;5.47;;;16.90;70.20;;;;;;5094552;28;20024;-75
2022/05/04 01:05:27;;;;;;;8.93;6.10;;;16.90;70.80;;;;;;5095297;28;20086;-74
2022/05/04 01:07:53;;;;;;;8.93;5.65;;;16.90;71.00;;;;;;5094759;28;20027;-73
2022/05/04 01:10:18;;;;;;;6.95;6.25;;;16.90;71.00;;;;;;5095158;28;20028;-75
2022/05/04 01:12:46;;;;;;;14.38;6.30;;;16.80;71.20;;;;;;5095105;28;20094;-74
2022/05/04 01:15:11;;;;;;;9.88;6.07;;;16.80;71.10;;;;;;5094122;28;20062;-74
2022/05/04 01:17:37;;;;;;;10.27;6.03;;;16.80;71.10;;;;;;5095029;28;20496;-74
2022/05/04 01:20:03;;;;;;;9.93;6.03;;;16.80;71.50;;;;;;5094452;28;20122;-74
2022/05/04 01:22:28;;;;;;;7.20;6.43;;;16.80;71.90;;;;;;5094980;28;20020;-74
2022/05/04 01:24:54;;;;;;;8.27;6.07;;;16.80;71.70;;;;;;5094370;28;20032;-76
2022/05/04 01:27:20;;;;;;;7.18;6.47;;;16.90;71.90;;;;;;5094848;28;20077;-74
2022/05/04 01:29:47;;;;;;;10.88;6.75;;;16.90;71.50;;;;;;5094889;28;20020;-75
2022/05/04 01:32:12;;;;;;;10.35;6.38;;;16.80;72.00;;;;;;5094192;28;20379;-76
2022/05/04 01:34:57;;;;;;;10.77;7.03;;;16.80;71.90;;;;;;5094769;28;20028;-75
2022/05/04 01:37:22;;;;;;;10.40;6.30;;;16.80;72.40;;;;;;5110449;28;20031;-76
2022/05/04 01:39:48;;;;;;;9.00;6.60;;;16.80;72.60;;;;;;5094626;28;20021;-75
2022/05/04 01:42:13;;;;;;;9.77;7.28;;;16.80;72.70;;;;;;5094086;28;20027;-75
2022/05/04 01:44:40;;;;;;;10.68;6.55;;;16.70;72.60;;;;;;5094224;28;20165;-75
2022/05/04 01:47:07;;;;;;;9.25;6.50;;;16.70;72.60;;;;;;5094086;28;20023;-75
2022/05/04 01:49:33;;;;;;;10.32;6.97;;;16.70;72.80;;;;;;5094550;28;20594;-75
2022/05/04 01:51:59;;;;;;;9.77;6.88;;;16.70;73.10;;;;;;5093844;28;20060;-75
2022/05/04 01:54:26;;;;;;;11.82;6.95;;;16.60;73.20;;;;;;5092976;28;20389;-75
2022/05/04 01:56:51;;;;;;;12.68;6.97;;;16.60;73.00;;;;;;5093334;28;20475;-75
2022/05/04 01:59:17;;;;;;;9.93;6.65;;;16.60;72.90;;;;;;5093716;28;20098;-75
2022/05/04 02:01:43;;;;;;;9.30;6.28;;;16.60;73.10;;;;;;5093985;28;20046;-75
2022/05/04 02:04:08;;;;;;;11.25;7.18;;;16.60;73.30;;;;;;5093429;28;20020;-75
2022/05/04 02:06:36;;;;;;;9.95;6.47;;;16.60;72.80;;;;;;5093777;28;20025;-75
2022/05/04 02:09:03;;;;;;;9.93;6.38;;;16.60;73.30;;;;;;5108143;28;20028;-75
2022/05/04 02:11:32;;;;;;;11.07;6.50;;;16.50;73.40;;;;;;5093834;28;20027;-74
2022/05/04 02:14:00;;;;;;;10.38;6.85;;;16.50;73.60;;;;;;5108812;28;20044;-74
2022/05/04 02:16:26;;;;;;;8.68;6.53;;;16.50;73.50;;;;;;5092523;28;20518;-74
2022/05/04 02:18:52;;;;;;;9.40;7.13;;;16.50;73.90;;;;;;5093587;28;20032;-78
2022/05/04 02:21:18;;;;;;;17.63;7.32;;;16.50;74.10;;;;;;5093990;28;20032;-74
2022/05/04 02:23:43;;;;;;;8.55;6.55;;;16.40;74.00;;;;;;5093854;28;20059;-75
2022/05/04 02:26:09;;;;;;;11.88;7.05;;;16.40;74.60;;;;;;5093555;28;20028;-75
2022/05/04 02:28:35;;;;;;;9.57;6.47;;;16.40;74.70;;;;;;5093972;28;20028;-75
2022/05/04 02:31:01;;;;;;;13.95;7.65;;;16.30;74.90;;;;;;5093093;28;20036;-75
2022/05/04 02:33:27;;;;;;;9.68;6.80;;;16.30;75.10;;;;;;5093542;28;20084;-75
2022/05/04 02:38:37;;;;;;;9.98;7.00;;;16.20;75.00;;;;;;5093241;28;20071;-75
2022/05/04 02:41:03;;;;;;;9.70;7.03;;;16.20;75.20;;;;;;5092792;28;20062;-74
2022/05/04 02:43:28;;;;;;;9.98;7.30;;;16.20;75.20;;;;;;5093111;28;20055;-76
2022/05/04 02:45:55;;;;;;;14.20;6.63;;;16.20;75.60;;;;;;5092842;28;20497;-79
2022/05/04 02:48:21;;;;;;;9.35;7.20;;;16.10;75.60;;;;;;5108849;28;20477;-74
2022/05/04 02:50:46;;;;;;;11.15;7.10;;;16.10;76.00;;;;;;5093226;28;20039;-74
2022/05/04 02:53:12;;;;;;;12.57;7.05;;;16.10;75.90;;;;;;5108253;28;20428;-74
2022/05/04 02:55:38;;;;;;;9.05;7.07;;;16.10;76.20;;;;;;5093075;28;20028;-74
2022/05/04 02:58:04;;;;;;;11.27;7.22;;;16.00;76.50;;;;;;5092604;28;20460;-74
2022/05/04 03:00:29;;;;;;;10.77;7.03;;;16.00;77.10;;;;;;5093077;28;20078;-74
2022/05/04 03:02:55;;;;;;;10.68;7.25;;;16.00;77.40;;;;;;5092891;28;20028;-78
2022/05/04 03:05:22;;;;;;;9.98;7.32;;;16.00;77.40;;;;;;5092774;28;20465;-75
2022/05/04 03:07:47;;;;;;;9.85;7.22;;;16.00;77.10;;;;;;5092887;28;20034;-75
2022/05/04 03:10:14;;;;;;;9.65;7.43;;;16.00;77.80;;;;;;5092289;28;20032;-74
2022/05/04 03:12:40;;;;;;;8.20;7.38;;;16.00;78.00;;;;;;5092850;28;20024;-75
2022/05/04 03:15:07;;;;;;;8.82;7.68;;;16.00;78.00;;;;;;5092105;28;20052;-75
2022/05/04 03:17:33;;;;;;;8.50;7.68;;;16.00;78.10;;;;;;5092833;28;20051;-74
2022/05/04 03:20:00;;;;;;;9.52;8.00;;;16.00;78.30;;;;;;5092153;28;20065;-75
2022/05/04 03:22:25;;;;;;;8.43;7.03;;;16.00;78.30;;;;;;5091871;28;20107;-74
2022/05/04 03:24:51;;;;;;;8.82;7.35;;;15.90;78.40;;;;;;5092692;28;20131;-74
2022/05/04 03:27:17;;;;;;;8.90;8.00;;;16.00;78.60;;;;;;5091761;28;20300;-74
2022/05/04 03:29:43;;;;;;;12.15;7.65;;;15.90;78.60;;;;;;5100810;28;20457;-74
2022/05/04 03:32:09;;;;;;;9.52;7.65;;;16.00;79.10;;;;;;5091447;28;20031;-75
2022/05/04 03:34:35;;;;;;;12.25;7.68;;;16.00;79.10;;;;;;5091904;28;20489;-74
2022/05/04 03:37:01;;;;;;;10.35;7.88;;;16.00;79.60;;;;;;5104657;28;20157;-74
2022/05/04 03:39:27;;;;;;;10.88;8.88;;;16.00;79.70;;;;;;5096114;28;20051;-75
2022/05/04 03:41:53;;;;;;;11.20;7.75;;;15.90;79.40;;;;;;5101799;28;20035;-75
2022/05/04 03:44:19;;;;;;;9.43;7.43;;;16.00;80.00;;;;;;5090425;28;20028;-75
2022/05/04 03:46:51;;;;;;;10.93;7.13;;;16.00;80.20;;;;;;5092083;28;20016;-75
2022/05/04 03:49:18;;;;;;;8.65;7.13;;;15.90;80.30;;;;;;5090889;28;20019;-75
2022/05/04 03:51:44;;;;;;;13.23;6.88;;;15.90;80.00;;;;;;5088980;28;20024;-75
2022/05/04 03:54:10;;;;;;;11.07;6.68;;;15.90;79.80;;;;;;5091049;28;20361;-75
2022/05/04 03:56:37;;;;;;;10.10;7.95;;;15.90;79.70;;;;;;5089916;28;20030;-75
2022/05/04 03:59:04;;;;;;;9.48;7.15;;;15.90;80.90;;;;;;5091177;28;20032;-75
2022/05/04 04:01:29;;;;;;;9.82;7.38;;;15.80;80.60;;;;;;5091582;28;20028;-75
2022/05/04 04:03:55;;;;;;;10.23;7.63;;;15.80;81.30;;;;;;5091463;28;20028;-75
2022/05/04 04:06:21;;;;;;;11.25;7.60;;;15.80;81.60;;;;;;5090574;28;20445;-75
2022/05/04 04:08:50;;;;;;;9.52;6.97;;;15.80;81.50;;;;;;5090498;28;20024;-75
2022/05/04 04:11:17;;;;;;;12.20;7.05;;;15.80;81.40;;;;;;5090551;28;20147;-75
2022/05/04 04:13:42;;;;;;;10.52;6.70;;;15.80;81.20;;;;;;5090909;28;20397;-75
2022/05/04 04:16:08;;;;;;;9.85;6.72;;;15.70;81.50;;;;;;5091298;28;20036;-75
2022/05/04 04:18:34;;;;;;;8.75;6.35;;;15.70;82.10;;;;;;5091744;28;20035;-74
2022/05/04 04:23:44;;;;;;;9.27;7.18;;;15.60;81.50;;;;;;5091452;28;20092;-75
2022/05/04 04:26:10;;;;;;;10.88;6.25;;;15.50;82.20;;;;;;5090961;28;20115;-75
2022/05/04 04:28:38;;;;;;;6.82;5.75;;;15.40;82.20;;;;;;5091478;28;20413;-76
2022/05/04 04:31:04;;;;;;;11.20;6.75;;;15.40;82.30;;;;;;5090955;28;20388;-75
2022/05/04 04:33:30;;;;;;;8.95;6.45;;;15.30;83.30;;;;;;5092491;28;20043;-75
2022/05/04 04:36:00;;;;;;;8.45;6.22;;;15.30;82.80;;;;;;5095823;28;20032;-75
2022/05/04 04:38:26;;;;;;;9.18;6.03;;;15.20;82.70;;;;;;5095335;28;20028;-74
2022/05/04 04:40:53;;;;;;;9.45;6.38;;;15.20;83.00;;;;;;5096035;28;20129;-74
2022/05/04 04:43:19;;;;;;;9.40;6.18;;;15.20;83.50;;;;;;5095135;28;20412;-74
2022/05/04 04:45:45;;;;;;;9.80;6.25;;;15.10;83.60;;;;;;5095613;28;20044;-73
2022/05/04 04:48:12;;;;;;;6.70;6.00;;;15.10;84.20;;;;;;5095192;28;20024;-73
2022/05/04 04:50:38;;;;;;;8.32;6.60;;;15.00;84.30;;;;;;5095413;28;20020;-73
2022/05/04 04:53:03;;;;;;;8.82;6.50;;;15.00;84.80;;;;;;5094943;28;20518;-78
2022/05/04 04:55:29;;;;;;;6.75;6.15;;;15.00;84.90;;;;;;5095398;28;20036;-74
2022/05/04 04:57:55;;;;;;;8.95;7.03;;;15.00;84.60;;;;;;5095875;28;20423;-74
2022/05/04 05:00:21;;;;;;;12.50;6.90;;;15.00;84.60;;;;;;5110577;28;20028;-74
2022/05/04 05:02:47;;;;;;;11.95;7.63;;;15.00;84.90;;;;;;5095351;28;20031;-74
2022/05/04 05:05:13;;;;;;;9.50;7.80;;;15.00;84.80;;;;;;5094314;28;20036;-73
2022/05/04 05:07:39;;;;;;;8.45;7.28;;;15.00;85.40;;;;;;5095113;28;20046;-73
2022/05/04 05:10:27;;;;;;;11.07;7.22;;;15.00;86.40;;;;;;5095396;28;20024;-79
2022/05/04 05:12:52;;;;;;;13.23;7.85;;;15.00;85.80;;;;;;5095731;28;20024;-74
2022/05/04 05:18:03;;;;;;;11.18;8.30;;;15.00;86.20;;;;;;5095213;28;20035;-73
2022/05/04 05:20:30;;;;;;;9.85;7.93;;;14.90;86.20;;;;;;5094690;28;20056;-74
2022/05/04 05:22:57;;;;;;;10.88;8.07;;;14.90;86.30;;;;;;5095173;28;20491;-75
2022/05/04 05:25:23;;;;;;;9.82;8.82;;;14.90;87.40;;;;;;5094764;28;20499;-74
2022/05/04 05:27:48;;;;;;;13.65;8.88;;;14.90;87.20;;;;;;5094576;28;20024;-74
2022/05/04 05:30:14;;;;;;;11.80;8.40;;;14.90;87.00;;;;;;5093936;28;20024;-74
2022/05/04 05:32:40;;;;;;;10.75;8.95;;;14.90;87.60;;;;;;5110721;28;20028;-74
2022/05/04 05:35:07;;;;;;;9.77;8.82;;;15.00;87.40;;;;;;5095080;28;20476;-74
2022/05/04 05:37:32;;;;;;;17.88;9.10;;;15.00;87.30;;;;;;5093520;28;20039;-74
2022/05/04 05:39:58;;;;;;;13.02;8.32;;;15.50;87.30;;;;;;5095150;28;20032;-73
2022/05/04 05:42:23;;;;;;;9.07;7.80;;;15.80;84.80;;;;;;5094809;28;20067;-74
2022/05/04 05:44:49;;;;;;;8.40;7.55;;;16.00;80.10;;;;;;5093579;28;20043;-73
2022/05/04 05:47:15;;;;;;;11.15;6.93;;;16.40;82.90;;;;;;5093920;28;20028;-74
2022/05/04 05:49:41;;;;;;;14.13;7.20;;;17.90;78.20;;;;;;5094621;28;20031;-74
2022/05/04 05:52:10;;;;;;;9.27;6.35;;;19.10;68.70;;;;;;5094704;28;20031;-74
2022/05/04 05:54:35;;;;;;;8.70;6.18;;;20.40;64.30;;;;;;5094756;28;20134;-73
2022/05/04 05:57:01;;;;;;;12.82;6.85;;;21.20;58.10;;;;;;5094737;28;20020;-74
2022/05/04 05:59:27;;;;;;;8.48;5.68;;;22.20;54.60;;;;;;5093963;28;20022;-74
2022/05/04 06:01:52;;;;;;;7.00;5.30;;;23.20;53.30;;;;;;5093945;28;20036;-74
2022/05/04 06:04:18;;;;;;;9.30;5.90;;;23.90;49.90;;;;;;5093397;28;20035;-74
2022/05/04 06:06:44;;;;;;;6.03;5.47;;;24.70;48.10;;;;;;5093485;28;20131;-74
2022/05/04 06:09:09;;;;;;;8.70;6.47;;;25.50;46.30;;;;;;5092667;28;20031;-76
2022/05/04 06:11:35;;;;;;;6.68;6.05;;;25.90;44.90;;;;;;5093975;28;20103;-74
2022/05/04 06:14:01;;;;;;;9.18;6.35;;;26.60;42.90;;;;;;5093712;28;20055;-74
2022/05/04 06:16:27;;;;;;;8.38;6.35;;;26.20;42.50;;;;;;5093475;28;20036;-73
2022/05/04 06:18:53;;;;;;;9.82;6.70;;;26.90;43.10;;;;;;5093643;28;20047;-74
2022/05/04 06:21:19;;;;;;;7.25;6.18;;;27.20;40.80;;;;;;5093143;28;20024;-75
2022/05/04 06:23:44;;;;;;;10.23;6.07;;;26.90;41.10;;;;;;5093823;28;20035;-74
2022/05/04 06:26:10;;;;;;;11.02;6.57;;;26.30;41.40;;;;;;5091407;28;20064;-80
2022/05/04 06:28:36;;;;;;;10.60;8.60;;;25.70;42.50;;;;;;5093394;28;20024;-74
2022/05/04 06:36:30;;;;;;;7.28;6.55;;;25.40;43.40;;;;;;5092568;28;20146;-74
2022/05/04 06:38:56;;;;;;;7.78;6.20;;;25.20;43.50;;;;;;5091793;28;20077;-74
2022/05/04 06:41:22;;;;;;;9.90;5.93;;;25.40;44.30;;;;;;5092380;28;20477;-73
2022/05/04 06:43:48;;;;;;;7.22;6.40;;;25.70;43.00;;;;;;5092993;28;20179;-74
2022/05/04 06:46:15;;;;;;;10.73;6.55;;;25.80;42.90;;;;;;5092288;28;20036;-75
2022/05/04 06:48:41;;;;;;;11.02;6.15;;;26.10;42.30;;;;;;5092692;28;20451;-74
2022/05/04 06:51:06;;;;;;;11.57;6.18;;;26.70;42.20;;;;;;5092278;28;20047;-74
2022/05/04 06:53:33;;;;;;;8.35;6.03;;;27.30;40.90;;;;;;5091703;28;20103;-74
2022/05/04 06:55:59;;;;;;;9.50;6.63;;;27.80;40.20;;;;;;5092677;28;20061;-74
2022/05/04 06:58:25;;;;;;;8.63;5.93;;;27.50;38.90;;;;;;5091068;28;20035;-75
2022/05/04 07:00:51;;;;;;;8.00;6.25;;;27.10;39.40;;;;;;5091464;28;20385;-73
2022/05/04 07:03:17;;;;;;;10.40;6.40;;;26.60;40.10;;;;;;5092327;28;20028;-74
2022/05/04 07:05:43;;;;;;;7.82;6.50;;;26.20;40.80;;;;;;5092755;28;20040;-74
2022/05/04 07:08:09;;;;;;;12.45;6.10;;;25.80;43.00;;;;;;5093066;28;20016;-74
2022/05/04 07:10:35;;;;;;;8.73;6.90;;;26.20;42.20;;;;;;5092162;28;20549;-74
2022/05/04 07:13:00;;;;;;;8.85;6.75;;;26.40;40.30;;;;;;5092935;28;20479;-74
2022/05/04 07:15:26;;;;;;;10.20;6.70;;;26.60;40.70;;;;;;5091723;28;20052;-73
2022/05/04 07:17:52;;;;;;;8.27;6.60;;;26.60;41.20;;;;;;5092712;28;20119;-74
2022/05/04 07:20:17;;;;;;;7.72;6.95;;;26.60;40.10;;;;;;5091955;28;20032;-74
2022/05/04 07:22:43;;;;;;;7.43;6.43;;;26.00;40.60;;;;;;5092522;28;20032;-73
2022/05/04 07:25:09;;;;;;;12.52;7.15;;;25.90;41.70;;;;;;5092496;28;20414;-73
2022/05/04 07:27:34;;;;;;;8.95;6.97;;;25.50;42.50;;;;;;5092278;28;20035;-74
2022/05/04 07:30:01;;;;;;;9.25;6.97;;;25.10;42.80;;;;;;5092685;28;20020;-74
2022/05/04 07:32:27;;;;;;;11.05;7.05;;;24.90;43.90;;;;;;5091961;28;20020;-75
2022/05/04 07:34:52;;;;;;;8.50;6.18;;;25.10;43.40;;;;;;5092245;28;20499;-74
2022/05/04 07:37:18;;;;;;;10.32;6.82;;;25.10;43.50;;;;;;5091477;28;20427;-74
2022/05/04 07:42:28;;;;;;;6.93;6.22;;;24.90;43.70;;;;;;5091683;28;20039;-74
2022/05/04 07:45:05;;;;;;;7.82;6.20;;;25.10;44.30;;;;;;5092274;28;20028;-74
2022/05/04 07:47:33;;;;;;;7.10;6.20;;;25.50;42.40;;;;;;5091667;28;20056;-73
2022/05/04 07:50:00;;;;;;;7.00;6.35;;;26.00;42.00;;;;;;5092052;28;20060;-74
2022/05/04 07:52:26;;;;;;;9.40;6.25;;;26.50;41.50;;;;;;5091503;28;20035;-74
2022/05/04 07:54:52;;;;;;;7.55;5.97;;;27.00;40.80;;;;;;5092001;28;20043;-73
2022/05/04 07:57:19;;;;;;;7.93;5.45;;;27.60;39.90;;;;;;5091374;28;20031;-74
2022/05/04 08:04:16;;;;;;;6.70;5.13;;;28.10;39.10;;;;;;5091999;28;20028;-74
2022/05/04 08:05:15;;;;;;;7.95;6.22;;;29.40;37.20;;;;;;5091406;28;20050;-75
2022/05/04 08:07:41;;;;;;;8.98;6.85;;;29.40;36.90;;;;;;5090866;28;20020;-73
2022/05/04 08:10:07;;;;;;;9.00;6.43;;;29.60;36.40;;;;;;5091758;28;20032;-73
2022/05/04 08:12:33;;;;;;;8.40;6.18;;;29.20;36.10;;;;;;5091169;28;20020;-73
2022/05/04 08:14:59;;;;;;;7.20;6.22;;;29.00;36.40;;;;;;5091834;28;20051;-73
2022/05/04 08:17:25;;;;;;;6.88;6.00;;;28.80;36.60;;;;;;5090976;28;20028;-74
2022/05/04 08:19:51;;;;;;;8.40;6.18;;;28.60;36.60;;;;;;5091817;28;20125;-74
2022/05/04 08:22:17;;;;;;;6.70;5.95;;;28.40;36.50;;;;;;5091837;28;20032;-73
2022/05/04 08:24:42;;;;;;;6.30;5.80;;;28.20;37.00;;;;;;5091618;28;20039;-73
2022/05/04 08:27:08;;;;;;;10.07;5.90;;;28.20;37.70;;;;;;5091484;28;20040;-73
2022/05/04 08:29:34;;;;;;;9.45;6.20;;;28.30;37.90;;;;;;5091649;28;20039;-73
2022/05/04 08:31:59;;;;;;;9.32;5.90;;;28.50;38.50;;;;;;5091870;28;20059;-73
2022/05/04 08:34:25;;;;;;;6.43;5.63;;;28.40;36.80;;;;;;5091125;28;20024;-73
2022/05/04 08:36:51;;;;;;;10.93;6.20;;;28.50;36.90;;;;;;5091617;28;20385;-73
2022/05/04 08:39:16;;;;;;;7.68;6.28;;;28.50;37.20;;;;;;5091737;28;20024;-74
2022/05/04 08:41:43;;;;;;;6.78;5.95;;;28.40;36.60;;;;;;5090960;28;20095;-74
2022/05/04 08:44:11;;;;;;;8.05;5.65;;;28.00;38.10;;;;;;5091623;28;20483;-74
2022/05/04 08:46:41;;;;;;;10.73;6.28;;;28.00;37.70;;;;;;5090951;28;20032;-74
2022/05/04 08:49:07;;;;;;;;;;;27.60;38.30;;;;;;5092170;28;20031;-74
2022/05/04 08:51:35;;;;;;;7.60;5.95;;;27.20;38.50;;;;;;5091104;28;20337;-74
2022/05/04 08:54:00;;;;;;;7.38;6.50;;;27.30;38.40;;;;;;5091322;28;20068;-74
2022/05/04 08:56:26;;;;;;;6.82;6.20;;;27.20;38.20;;;;;;5091122;28;20127;-74
2022/05/04 08:58:52;;;;;;;7.93;7.20;;;26.90;39.10;;;;;;5091639;28;20028;-73
2022/05/04 09:01:18;;;;;;;8.73;6.68;;;26.30;39.40;;;;;;5091380;28;20066;-74
2022/05/04 09:03:43;;;;;;;12.32;6.45;;;26.00;40.10;;;;;;5090961;28;20028;-73
2022/05/04 09:06:09;;;;;;;8.73;6.75;;;25.90;41.30;;;;;;5091341;28;20067;-73
2022/05/04 09:08:58;;;;;;;9.13;6.53;;;25.80;41.50;;;;;;5090930;28;20056;-74
2022/05/04 09:11:24;;;;;;;7.53;6.82;;;25.50;41.30;;;;;;5090694;28;20392;-73
2022/05/04 09:13:50;;;;;;;8.13;6.97;;;25.50;41.70;;;;;;5091052;28;20061;-73
2022/05/04 09:16:30;;;;;;;7.28;6.55;;;25.30;42.40;;;;;;5091127;28;20032;-73
2022/05/04 09:18:58;;;;;;;9.00;7.10;;;25.40;42.10;;;;;;5091470;28;20028;-73
2022/05/04 09:21:25;;;;;;;9.35;7.30;;;25.40;42.10;;;;;;5093171;28;20148;-74
2022/05/04 09:23:52;;;;;;;11.20;8.20;;;25.30;42.60;;;;;;5095201;28;20047;-73
2022/05/04 09:26:22;;;;;;;8.85;6.25;;;25.10;42.50;;;;;;5094677;28;20036;-72
2022/05/04 09:28:57;;;;;;;14.30;7.20;;;25.10;43.20;;;;;;5094889;28;20024;-73
2022/05/04 09:31:29;;;;;;;7.13;6.38;;;25.30;44.20;;;;;;5095127;28;20035;-73
2022/05/04 09:33:57;;;;;;;8.10;5.97;;;25.30;43.70;;;;;;5110171;28;20040;-72
2022/05/04 09:45:29;;;;;;;9.63;6.68;;;25.70;42.20;;;;;;5094654;28;20066;-74
2022/05/04 09:47:55;;;;;;;7.97;6.90;;;25.70;43.30;;;;;;5092559;28;20043;-74
2022/05/04 09:50:21;;;;;;;9.93;7.45;;;25.60;42.00;;;;;;5094241;28;20122;-73
2022/05/04 09:53:05;;;;;;;10.23;6.93;;;25.60;42.80;;;;;;5093606;28;20032;-74
2022/05/04 09:55:31;;;;;;;13.65;7.30;;;25.40;42.70;;;;;;5093703;28;20388;-74
2022/05/04 09:57:57;;;;;;;8.07;7.32;;;25.20;42.50;;;;;;5094551;28;20024;-73
2022/05/04 10:00:25;;;;;;;10.45;7.22;;;25.30;42.90;;;;;;5094220;28;20123;-73
2022/05/04 10:02:52;;;;;;;8.30;7.30;;;25.20;43.10;;;;;;5094200;28;20031;-73
2022/05/04 10:05:19;;;;;;;13.15;8.48;;;25.20;43.00;;;;;;5094186;28;20032;-73
2022/05/04 10:07:47;;;;;;;8.18;7.38;;;25.00;42.90;;;;;;5093653;28;20348;-74
2022/05/04 10:10:18;;;;;;;7.93;7.13;;;25.00;43.10;;;;;;5093972;28;20028;-75
2022/05/04 10:12:45;;;;;;;7.93;6.85;;;25.10;44.20;;;;;;5093248;28;20028;-73
2022/05/04 10:15:18;;;;;;;8.68;7.45;;;25.10;43.20;;;;;;5093383;28;20143;-73
2022/05/04 10:17:56;;;;;;;12.10;8.00;;;25.00;43.00;;;;;;5093286;28;20111;-74
2022/05/04 10:20:30;;;;;;;8.48;7.50;;;24.80;43.40;;;;;;5093802;28;20028;-74
2022/05/04 10:23:07;;;;;;;9.57;7.72;;;24.80;43.60;;;;;;5109497;28;20051;-73
2022/05/04 10:25:34;;;;;;;11.48;7.10;;;24.70;43.90;;;;;;5093063;28;20036;-73
2022/05/04 10:28:07;;;;;;;8.85;6.38;;;24.70;43.70;;;;;;5093738;28;20059;-73
2022/05/04 10:30:34;;;;;;;8.75;6.75;;;24.70;44.10;;;;;;5093155;28;20058;-74
2022/05/04 10:33:10;;;;;;;10.07;7.32;;;24.70;43.40;;;;;;5093424;28;20491;-73
2022/05/04 10:35:42;;;;;;;9.40;6.75;;;24.60;43.50;;;;;;5093199;28;20024;-72
2022/05/04 10:38:18;;;;;;;11.60;7.38;;;24.60;43.70;;;;;;5093580;28;20020;-75
2022/05/04 10:41:00;;;;;;;8.23;7.10;;;24.60;43.40;;;;;;5093009;28;20151;-74
2022/05/04 10:43:37;;;;;;;11.23;7.60;;;24.50;44.40;;;;;;5093527;28;20111;-73
2022/05/04 10:46:18;;;;;;;14.50;6.90;;;24.60;43.80;;;;;;5093610;28;20031;-73
2022/05/04 10:49:02;;;;;;;10.38;6.45;;;24.70;44.40;;;;;;5093030;28;20032;-73
2022/05/04 10:51:30;;;;;;;8.00;6.22;;;24.70;43.50;;;;;;5093222;28;20484;-73
2022/05/04 10:54:08;;;;;;;8.38;5.97;;;24.80;43.70;;;;;;5093004;28;20349;-73
2022/05/04 10:56:41;;;;;;;7.18;5.88;;;24.90;43.70;;;;;;5092690;28;20074;-74
2022/05/04 10:59:07;;;;;;;10.75;6.88;;;24.90;42.80;;;;;;5109242;28;20024;-74
2022/05/04 11:01:38;;;;;;;8.48;7.00;;;24.80;43.20;;;;;;5108148;28;20436;-74
2022/05/04 11:04:11;;;;;;;9.07;7.10;;;24.60;43.90;;;;;;5093002;28;20039;-73
2022/05/04 11:06:44;;;;;;;11.95;7.18;;;24.40;44.10;;;;;;5092329;28;20173;-73
2022/05/04 11:09:11;;;;;;;10.43;6.63;;;24.20;43.70;;;;;;5092804;28;20432;-73
2022/05/04 11:11:45;;;;;;;9.85;6.55;;;24.10;44.90;;;;;;5092384;28;20024;-74
2022/05/04 11:14:13;;;;;;;9.35;6.20;;;24.10;45.70;;;;;;5093186;28;20140;-73
2022/05/04 11:16:58;;;;;;;7.78;5.68;;;24.20;45.30;;;;;;5091981;28;20059;-74
2022/05/04 11:19:26;;;;;;;11.10;5.47;;;24.30;45.40;;;;;;5093322;28;20036;-74
2022/05/04 11:21:52;;;;;;;7.93;5.13;;;24.30;44.30;;;;;;5092389;28;20081;-73
2022/05/04 11:24:18;;;;;;;7.63;4.72;;;24.30;44.00;;;;;;5092580;28;20028;-73
2022/05/04 11:26:52;;;;;;;7.72;5.00;;;24.30;44.60;;;;;;5092158;28;20042;-73
2022/05/04 11:29:23;;;;;;;7.10;4.28;;;24.40;44.60;;;;;;5092513;28;20024;-73
2022/05/04 11:31:56;;;;;;;6.47;4.97;;;24.50;44.10;;;;;;5092011;28;20031;-74
2022/05/04 11:34:33;;;;;;;7.22;5.15;;;24.50;43.70;;;;;;5092775;28;20035;-73
2022/05/04 11:37:05;;;;;;;6.25;4.90;;;24.40;42.50;;;;;;5092521;28;20062;-73
2022/05/04 11:39:33;;;;;;;7.80;4.43;;;24.40;43.40;;;;;;5092459;28;20123;-73
2022/05/04 11:42:00;;;;;;;8.77;4.72;;;24.30;43.20;;;;;;5092491;28;20406;-73
2022/05/04 11:44:28;;;;;;;6.78;4.88;;;24.30;43.40;;;;;;5092081;28;20453;-73
2022/05/04 11:46:55;;;;;;;10.50;4.50;;;24.30;44.20;;;;;;5091768;28;20044;-73
2022/05/04 11:49:23;;;;;;;8.63;5.28;;;24.30;44.20;;;;;;5092570;28;20030;-73
2022/05/04 11:51:50;;;;;;;6.70;5.07;;;24.30;44.00;;;;;;5091914;28;20077;-73
2022/05/04 11:54:16;;;;;;;10.05;4.47;;;24.30;44.10;;;;;;5092319;28;20036;-74
2022/05/04 11:56:41;;;;;;;6.80;4.95;;;24.30;44.30;;;;;;5091651;28;20024;-74
2022/05/04 11:59:07;;;;;;;6.72;4.63;;;24.30;43.70;;;;;;5092000;28;20099;-73
2022/05/04 12:01:33;;;;;;;13.27;5.00;;;24.30;44.50;;;;;;5092203;28;20081;-73
2022/05/04 12:04:00;;;;;;;14.52;5.25;;;24.30;44.90;;;;;;5090910;28;20370;-73
2022/05/04 12:06:27;;;;;;;8.70;4.78;;;24.30;43.90;;;;;;5091878;28;20056;-72
2022/05/04 12:08:54;;;;;;;10.27;5.53;;;24.30;43.70;;;;;;5091642;28;20024;-73
2022/05/04 12:11:19;;;;;;;10.57;5.30;;;24.20;44.60;;;;;;5091901;28;20457;-73
2022/05/04 12:13:46;;;;;;;9.38;5.50;;;24.20;44.50;;;;;;5091257;28;20035;-73
2022/05/04 12:16:12;;;;;;;10.00;5.03;;;24.20;44.40;;;;;;5092171;28;20060;-73
2022/05/04 12:18:39;;;;;;;8.00;5.00;;;24.10;44.50;;;;;;5090942;28;20024;-73
2022/05/04 12:21:12;;;;;;;9.10;5.32;;;24.00;45.00;;;;;;5092183;28;20032;-73
2022/05/04 12:23:41;;;;;;;9.43;4.47;;;24.00;44.60;;;;;;5091251;28;20028;-74
2022/05/04 12:26:26;;;;;;;8.63;4.75;;;23.90;44.30;;;;;;5091653;28;20141;-74
2022/05/04 12:34:22;;;;;;;9.07;4.75;;;23.80;45.00;;;;;;5091954;28;20145;-72
2022/05/04 12:36:47;;;;;;;9.35;5.05;;;23.70;44.70;;;;;;5091314;28;20036;-73
2022/05/04 12:39:13;;;;;;;11.70;4.82;;;23.50;44.50;;;;;;5091865;28;20193;-73
2022/05/04 12:41:42;;;;;;;6.55;4.00;;;23.40;44.60;;;;;;5091217;28;20024;-73
2022/05/04 12:44:08;;;;;;;5.72;3.90;;;23.30;45.00;;;;;;5092156;28;20031;-73
2022/05/04 12:46:34;;;;;;;6.55;3.88;;;23.30;44.50;;;;;;5091390;28;20148;-73
2022/05/04 12:49:00;;;;;;;5.15;3.40;;;23.10;44.60;;;;;;5091005;28;20036;-74
2022/05/04 12:51:26;;;;;;;6.57;3.40;;;23.10;44.70;;;;;;5091528;28;20051;-74
2022/05/04 12:53:53;;;;;;;6.47;3.20;;;23.00;44.60;;;;;;5090905;28;20024;-73
2022/05/04 12:59:04;;;;;;;7.75;4.43;;;22.90;44.70;;;;;;5095440;28;20098;-73
2022/05/04 13:01:34;;;;;;;9.02;4.80;;;22.90;44.60;;;;;;5095523;28;20020;-73
2022/05/04 13:04:01;;;;;;;4.68;3.00;;;22.90;45.00;;;;;;5095020;28;20431;-73
2022/05/04 13:06:27;;;;;;;5.10;3.03;;;22.70;44.50;;;;;;5095467;28;20040;-73
2022/05/04 13:08:53;;;;;;;6.25;3.53;;;22.40;45.50;;;;;;5094758;28;20433;-72
2022/05/04 13:11:21;;;;;;;9.55;3.80;;;22.10;46.40;;;;;;5095269;28;20024;-73
2022/05/04 13:13:47;;;;;;;7.47;3.65;;;21.70;47.40;;;;;;5094454;28;20052;-74
2022/05/04 13:16:12;;;;;;;7.60;3.58;;;21.50;48.10;;;;;;5095155;28;20063;-73
2022/05/04 13:18:39;;;;;;;6.97;3.65;;;21.40;48.80;;;;;;5095707;28;20473;-73
2022/05/04 13:21:06;;;;;;;8.90;3.58;;;21.20;50.20;;;;;;5095187;28;20469;-73
2022/05/04 13:23:32;;;;;;;7.35;3.28;;;21.00;50.30;;;;;;5094736;28;20020;-74